West Pennsboro, Pennsylvania
Current Conditions -  °F | °C
As of 1:56 AM on Friday 19 Dec 2014 (Local Time) from KCXY Reporting Station
Overcast Overcast  
Wind Chill: 28°   Ceiling: 2700
Heat Index: 34°   Visibility: 10mi
Dew Point: 24°   Wind: 7mph
Humidity: 67%   Direction: 280°W
Pressure: 30.07"   Gusts: NA
Location:  40.183°N, 77.4166°W
Report Text: KCXY 190656Z AUTO 28006KT 10SM OVC027 01/M04 A3007 RMK AO2 SLP186 T00111044
Loading
Personal Weather Stations






























Interactive Weather Map New forecast layout! Learn more

10-Day Weather Forecast

Advertisements
Track Severe Weather on mobile